Time;durP1;ratioP1;P1;durP2;ratioP2;P2;SDS_P1;SDS_P2;PMS_P1;PMS_P2;Temp;Humidity;BMP_temperature;BMP_pressure;BME280_temperature;BME280_humidity;BME280_pressure;Samples;Min_cycle;Max_cycle;Signal;HPM_P1;HPM_P2
2023/06/30 00:01:52;;;;;;;;;;;;;;;20.50;57.96;99483.00;5062026;28;1896;-76
2023/06/30 00:04:19;;;;;;;;;;;;;;;20.49;58.13;99479.44;5046360;28;2091;-74
2023/06/30 00:06:49;;;;;;;;;;;;;;;20.47;58.13;99476.25;5082552;28;1902;-76
2023/06/30 00:09:15;;;;;;;;;;;;;;;20.47;58.04;99478.16;5046156;28;1967;-76
2023/06/30 00:11:42;;;;;;;;;;;;;;;20.47;58.28;99480.88;5061294;28;1609;-77
2023/06/30 00:14:08;;;;;;;;;;;;;;;20.45;58.19;99475.75;5046069;28;1830;-77
2023/06/30 00:16:43;;;;;;;;;;;;;;;20.47;58.18;99472.69;5064327;28;1549;-77
2023/06/30 00:19:09;;;;;;;;;;;;;;;20.46;57.94;99476.53;5051945;28;1081;-77
2023/06/30 00:21:41;;;;;;;;;;;;;;;20.45;57.83;99464.00;5051534;28;1397;-77
2023/06/30 00:24:08;;;;;;;;;;;;;;;20.46;58.01;99466.41;5050938;28;1350;-77
2023/06/30 00:26:34;;;;;;;;;;;;;;;20.45;57.85;99458.53;5050386;28;1918;-76
2023/06/30 00:29:01;;;;;;;;;;;;;;;20.43;58.21;99456.88;5050478;28;1874;-75
2023/06/30 00:31:28;;;;;;;;;;;;;;;20.42;57.84;99443.53;5050570;28;1743;-76
2023/06/30 00:33:55;;;;;;;;;;;;;;;20.43;58.12;99448.69;5066031;28;1846;-77
2023/06/30 00:36:21;;;;;;;;;;;;;;;20.42;58.06;99447.09;5049991;28;1551;-76
2023/06/30 00:38:49;;;;;;;;;;;;;;;20.42;57.86;99447.09;5051284;28;1903;-77
2023/06/30 00:41:16;;;;;;;;;;;;;;;20.41;58.05;99448.22;5050238;28;1346;-76
2023/06/30 00:43:42;;;;;;;;;;;;;;;20.41;58.02;99445.47;5051941;28;1058;-76
2023/06/30 00:46:09;;;;;;;;;;;;;;;20.39;57.96;99436.78;5066609;28;1983;-76
2023/06/30 00:48:36;;;;;;;;;;;;;;;20.38;57.74;99437.91;5050418;28;1366;-77
2023/06/30 00:51:02;;;;;;;;;;;;;;;20.40;57.79;99432.09;5052152;28;1067;-77
2023/06/30 00:53:29;;;;;;;;;;;;;;;20.39;57.90;99438.72;5066952;28;1333;-76
2023/06/30 00:55:55;;;;;;;;;;;;;;;20.39;58.04;99436.78;5050063;28;1406;-76
2023/06/30 00:58:22;;;;;;;;;;;;;;;20.38;57.90;99428.88;5062564;28;1624;-76
2023/06/30 01:00:48;;;;;;;;;;;;;;;20.37;57.85;99427.25;5052132;28;1175;-77
2023/06/30 01:03:15;;;;;;;;;;;;;;;20.37;58.10;99421.78;5066328;28;1627;-77
2023/06/30 01:05:41;;;;;;;;;;;;;;;20.36;58.09;99421.00;5067182;28;1309;-77
2023/06/30 01:08:08;;;;;;;;;;;;;;;20.36;57.93;99418.25;5051590;28;1898;-78
2023/06/30 01:10:34;;;;;;;;;;;;;;;20.36;57.87;99412.00;5066937;28;1349;-78
2023/06/30 01:13:01;;;;;;;;;;;;;;;20.35;57.70;99411.19;5066010;28;1812;-76
2023/06/30 01:15:27;;;;;;;;;;;;;;;20.33;57.84;99405.22;5050474;28;1367;-77
2023/06/30 01:17:54;;;;;;;;;;;;;;;20.32;57.79;99398.09;5051904;28;922;-77
2023/06/30 01:20:21;;;;;;;;;;;;;;;20.32;58.02;99392.63;5066525;28;1493;-78
2023/06/30 01:22:47;;;;;;;;;;;;;;;20.33;57.86;99404.41;5049678;28;1791;-76
2023/06/30 01:25:14;;;;;;;;;;;;;;;20.32;58.02;99409.03;5054170;28;2012;-75
2023/06/30 01:27:40;;;;;;;;;;;;;;;20.35;57.82;99416.66;5050319;28;1964;-79
2023/06/30 01:30:07;;;;;;;;;;;;;;;20.36;57.76;99403.78;5069385;28;1653;-75
2023/06/30 01:32:33;;;;;;;;;;;;;;;20.33;57.72;99401.69;5051769;28;1945;-77
2023/06/30 01:35:00;;;;;;;;;;;;;;;20.33;57.73;99397.00;5051819;28;1669;-79
2023/06/30 01:37:26;;;;;;;;;;;;;;;20.35;57.72;99394.78;5069041;28;1888;-76
2023/06/30 01:39:53;;;;;;;;;;;;;;;20.33;57.63;99397.00;5067069;28;1718;-74
2023/06/30 01:42:19;;;;;;;;;;;;;;;20.36;57.82;99395.59;5049381;28;1952;-77
2023/06/30 01:44:46;;;;;;;;;;;;;;;20.35;57.82;99394.78;5053448;28;2013;-78
2023/06/30 01:47:12;;;;;;;;;;;;;;;20.35;57.60;99391.22;5067903;28;1979;-78
2023/06/30 01:49:39;;;;;;;;;;;;;;;20.33;57.91;99388.81;5069316;28;1057;-78
2023/06/30 01:52:06;;;;;;;;;;;;;;;20.32;57.67;99386.38;5050365;28;1847;-78
2023/06/30 01:54:32;;;;;;;;;;;;;;;20.32;57.91;99397.31;5067596;28;1889;-77
2023/06/30 01:56:59;;;;;;;;;;;;;;;20.32;57.86;99386.38;5052004;28;1909;-76
2023/06/30 01:59:25;;;;;;;;;;;;;;;20.30;57.81;99392.16;5054854;28;1088;-78
2023/06/30 02:01:52;;;;;;;;;;;;;;;20.29;57.95;99387.00;5050768;28;1800;-77
2023/06/30 02:04:18;;;;;;;;;;;;;;;20.30;57.83;99385.91;5050682;28;1760;-77
2023/06/30 02:06:45;;;;;;;;;;;;;;;20.30;57.83;99388.63;5054489;28;1971;-78
2023/06/30 02:09:12;;;;;;;;;;;;;;;20.30;57.63;99388.63;5051305;28;2089;-76
2023/06/30 02:11:39;;;;;;;;;;;;;;;20.29;57.94;99390.53;5066034;28;1920;-78
2023/06/30 02:14:05;;;;;;;;;;;;;;;20.30;57.62;99391.38;5066513;28;1978;-77
2023/06/30 02:16:32;;;;;;;;;;;;;;;20.26;57.75;99385.69;5051822;28;1957;-77
2023/06/30 02:18:58;;;;;;;;;;;;;;;20.28;57.61;99377.19;5050542;28;1964;-75
2023/06/30 02:21:25;;;;;;;;;;;;;;;20.28;57.54;99379.94;5052682;28;2021;-76
2023/06/30 02:23:51;;;;;;;;;;;;;;;20.27;57.69;99381.84;5052074;28;1743;-76
2023/06/30 02:26:18;;;;;;;;;;;;;;;20.27;57.60;99370.91;5067478;28;2304;-77
2023/06/30 02:28:44;;;;;;;;;;;;;;;20.27;57.82;99370.13;5053420;28;2163;-78
2023/06/30 02:31:11;;;;;;;;;;;;;;;20.24;57.66;99368.81;5048333;28;2117;-77
2023/06/30 02:33:38;;;;;;;;;;;;;;;20.22;57.68;99367.50;5066277;28;2231;-75
2023/06/30 02:36:05;;;;;;;;;;;;;;;20.22;57.70;99368.31;5068513;28;2078;-75
2023/06/30 02:38:31;;;;;;;;;;;;;;;20.20;57.66;99365.88;5067620;28;1924;-74
2023/06/30 02:40:58;;;;;;;;;;;;;;;20.22;57.61;99362.03;5053655;28;1893;-76
2023/06/30 02:43:24;;;;;;;;;;;;;;;20.20;57.81;99363.13;5050778;28;1709;-75
2023/06/30 02:45:51;;;;;;;;;;;;;;;20.19;57.63;99363.47;5049135;28;1935;-76
2023/06/30 02:48:17;;;;;;;;;;;;;;;20.18;57.81;99357.19;5053096;28;2071;-75
2023/06/30 02:50:44;;;;;;;;;;;;;;;20.18;58.02;99361.88;5052566;28;1972;-75
2023/06/30 02:53:10;;;;;;;;;;;;;;;20.18;57.81;99357.19;5052870;28;1767;-75
2023/06/30 02:55:37;;;;;;;;;;;;;;;20.17;57.56;99354.78;5051806;28;1886;-75
2023/06/30 02:58:04;;;;;;;;;;;;;;;20.17;57.95;99358.31;5053035;28;1676;-78
2023/06/30 03:00:30;;;;;;;;;;;;;;;20.16;57.68;99359.44;5049601;28;1661;-75
2023/06/30 03:02:57;;;;;;;;;;;;;;;20.16;57.69;99347.69;5051495;28;2029;-78
2023/06/30 03:05:23;;;;;;;;;;;;;;;20.16;57.93;99344.97;5048553;28;2111;-77
2023/06/30 03:07:50;;;;;;;;;;;;;;;20.15;57.65;99352.34;5051634;28;2070;-73
2023/06/30 03:10:16;;;;;;;;;;;;;;;20.14;57.64;99342.53;5048189;28;2130;-77
2023/06/30 03:12:43;;;;;;;;;;;;;;;20.15;57.87;99340.63;5047695;28;2218;-75
2023/06/30 03:15:09;;;;;;;;;;;;;;;20.15;57.59;99337.91;5064678;28;1944;-76
2023/06/30 03:17:40;;;;;;;;;;;;;;;20.14;57.64;99339.00;5050312;28;1885;-77
2023/06/30 03:20:12;;;;;;;;;;;;;;;20.14;58.03;99333.53;5056226;28;2196;-77
2023/06/30 03:22:38;;;;;;;;;;;;;;;20.13;57.90;99342.84;5066012;28;1805;-78
2023/06/30 03:25:05;;;;;;;;;;;;;;;20.12;57.58;99344.78;5045645;28;2045;-79
2023/06/30 03:27:31;;;;;;;;;;;;;;;20.12;57.84;99333.06;5050655;28;1985;-76
2023/06/30 03:29:58;;;;;;;;;;;;;;;20.11;57.59;99332.22;5052958;28;1652;-77
2023/06/30 03:32:24;;;;;;;;;;;;;;;20.11;57.77;99334.97;5063685;28;2379;-77
2023/06/30 03:34:51;;;;;;;;;;;;;;;20.10;57.53;99330.63;5068549;28;1595;-77
2023/06/30 03:37:17;;;;;;;;;;;;;;;20.10;57.93;99333.34;5050681;28;1828;-77
2023/06/30 03:39:44;;;;;;;;;;;;;;;20.10;57.53;99329.81;5067439;28;1817;-76
2023/06/30 03:42:11;;;;;;;;;;;;;;;20.10;57.88;99327.09;5052342;28;1637;-76
2023/06/30 03:44:38;;;;;;;;;;;;;;;20.10;57.56;99325.16;5053101;28;1363;-78
2023/06/30 03:47:04;;;;;;;;;;;;;;;20.09;57.49;99325.44;5067248;28;1914;-78
2023/06/30 03:49:31;;;;;;;;;;;;;;;20.08;57.88;99330.13;5066714;28;1771;-76
2023/06/30 03:51:57;;;;;;;;;;;;;;;20.09;57.62;99330.91;5045299;28;1887;-77
2023/06/30 03:54:24;;;;;;;;;;;;;;;20.07;57.87;99325.78;5050296;28;1495;-77
2023/06/30 03:56:50;;;;;;;;;;;;;;;20.08;57.65;99326.56;5068041;28;1364;-77
2023/06/30 03:59:17;;;;;;;;;;;;;;;20.08;57.73;99318.38;5066330;28;1510;-76
2023/06/30 04:01:44;;;;;;;;;;;;;;;20.07;57.82;99322.25;5066542;28;1580;-76
2023/06/30 04:04:11;;;;;;;;;;;;;;;20.06;57.62;99315.16;5050580;28;1640;-75
2023/06/30 04:06:37;;;;;;;;;;;;;;;20.05;57.72;99311.59;5052111;28;1307;-78
2023/06/30 04:09:04;;;;;;;;;;;;;;;20.09;57.71;99322.72;5068001;28;2046;-74
2023/06/30 04:11:31;;;;;;;;;;;;;;;20.07;57.57;99316.78;5053244;28;1303;-76
2023/06/30 04:14:23;;;;;;;;;;;;;;;20.06;57.40;99313.25;5053827;28;987;-76
2023/06/30 04:17:14;;;;;;;;;;;;;;;20.07;57.49;99311.31;5053986;28;1347;-78
2023/06/30 04:20:09;;;;;;;;;;;;;;;20.06;57.64;99302.31;5054237;28;1108;-76
2023/06/30 04:22:56;;;;;;;;;;;;;;;20.06;57.39;99304.22;5053746;28;1107;-76
2023/06/30 04:25:39;;;;;;;;;;;;;;;20.06;57.49;99315.97;5052996;28;930;-76
2023/06/30 04:28:26;;;;;;;;;;;;;;;20.02;57.75;99312.25;5088811;22;1867;-77
2023/06/30 04:31:13;;;;;;;;;;;;;;;20.04;57.70;99309.22;5081357;28;916;-77
2023/06/30 04:33:39;;;;;;;;;;;;;;;20.03;57.34;99311.13;5078184;28;1130;-76
2023/06/30 04:36:07;;;;;;;;;;;;;;;20.05;57.69;99314.34;5052771;28;1010;-76
2023/06/30 04:38:33;;;;;;;;;;;;;;;20.02;57.60;99312.25;5052999;28;1089;-76
2023/06/30 04:41:00;;;;;;;;;;;;;;;20.03;57.52;99313.03;5053546;28;1294;-77
2023/06/30 04:43:27;;;;;;;;;;;;;;;20.04;57.60;99304.53;5051150;28;1323;-76
2023/06/30 04:45:53;;;;;;;;;;;;;;;20.01;57.32;99310.63;5053518;28;1027;-77
2023/06/30 04:48:20;;;;;;;;;;;;;;;20.00;57.72;99302.72;5053721;28;1979;-76
2023/06/30 04:50:46;;;;;;;;;;;;;;;20.04;57.42;99309.22;5054402;28;1080;-77
2023/06/30 04:53:13;;;;;;;;;;;;;;;20.01;57.45;99307.91;5051883;28;1164;-77
2023/06/30 04:55:39;;;;;;;;;;;;;;;20.02;57.27;99306.78;5053779;28;1029;-77
2023/06/30 04:58:06;;;;;;;;;;;;;;;19.99;57.33;99309.31;5058129;28;1025;-75
2023/06/30 05:00:32;;;;;;;;;;;;;;;20.13;56.97;99310.84;5060048;28;979;-77
2023/06/30 05:02:59;;;;;;;;;;;;;;;20.06;57.38;99312.41;5059322;28;1077;-76
2023/06/30 05:05:25;;;;;;;;;;;;;;;20.02;57.42;99317.69;5058643;28;953;-77
2023/06/30 05:07:52;;;;;;;;;;;;;;;20.03;57.22;99315.78;5057183;28;1910;-76
2023/06/30 05:10:18;;;;;;;;;;;;;;;20.06;57.01;99315.97;5058262;28;1341;-76
2023/06/30 05:12:45;;;;;;;;;;;;;;;20.03;57.21;99305.66;5057488;28;1311;-76
2023/06/30 05:15:11;;;;;;;;;;;;;;;20.06;57.09;99307.78;5060237;28;1017;-77
2023/06/30 05:17:38;;;;;;;;;;;;;;;20.01;57.03;99302.44;5059290;28;1214;-75
2023/06/30 05:20:08;;;;;;;;;;;;;;;20.01;57.27;99305.16;5068730;28;1292;-77
2023/06/30 05:22:34;;;;;;;;;;;;;;;20.18;56.64;99299.81;5059635;28;1010;-76
2023/06/30 05:25:01;;;;;;;;;;;;;;;20.19;56.85;99301.41;5059350;28;1018;-76
2023/06/30 05:27:27;;;;;;;;;;;;;;;20.15;56.73;99300.44;5058952;28;1973;-77
2023/06/30 05:29:54;;;;;;;;;;;;;;;20.16;56.93;99293.03;5058623;28;1080;-77
2023/06/30 05:32:20;;;;;;;;;;;;;;;20.11;56.89;99287.69;5073848;28;1283;-76
2023/06/30 05:34:47;;;;;;;;;;;;;;;20.16;56.58;99285.63;5058415;28;964;-76
2023/06/30 05:37:14;;;;;;;;;;;;;;;20.27;56.36;99286.19;5073504;28;1014;-77
2023/06/30 05:39:40;;;;;;;;;;;;;;;20.35;56.12;99285.41;5056969;28;923;-76
2023/06/30 05:42:07;;;;;;;;;;;;;;;20.31;56.03;99286.34;5058420;28;1054;-77
2023/06/30 05:44:33;;;;;;;;;;;;;;;20.36;55.95;99283.47;5057258;28;1646;-76
2023/06/30 05:47:00;;;;;;;;;;;;;;;20.36;56.02;99276.09;5058680;28;1072;-75
2023/06/30 05:49:27;;;;;;;;;;;;;;;20.36;55.85;99275.28;5058128;28;1910;-77
2023/06/30 05:51:54;;;;;;;;;;;;;;;20.28;56.31;99278.78;5057853;28;1093;-78
2023/06/30 05:54:20;;;;;;;;;;;;;;;20.27;56.10;99272.50;5058545;28;1004;-77
2023/06/30 05:56:47;;;;;;;;;;;;;;;20.25;56.19;99271.22;5058155;28;991;-77
2023/06/30 05:59:13;;;;;;;;;;;;;;;20.56;55.50;99271.19;5073432;28;1250;-77
2023/06/30 06:01:40;;;;;;;;;;;;;;;20.43;55.77;99270.16;5073809;28;1304;-76
2023/06/30 06:04:06;;;;;;;;;;;;;;;20.27;56.26;99275.25;5057928;28;1014;-77
2023/06/30 06:06:33;;;;;;;;;;;;;;;20.23;56.45;99271.50;5058322;28;1069;-76
2023/06/30 06:08:59;;;;;;;;;;;;;;;20.46;55.46;99271.44;5054749;28;1914;-77
2023/06/30 06:11:26;;;;;;;;;;;;;;;20.46;55.34;99266.78;5054693;28;1076;-76
2023/06/30 06:13:52;;;;;;;;;;;;;;;20.42;55.70;99269.34;5070531;28;1195;-76
2023/06/30 06:16:19;;;;;;;;;;;;;;;20.29;55.85;99267.50;5055058;28;1213;-75
2023/06/30 06:18:47;;;;;;;;;;;;;;;20.28;56.00;99273.31;5069707;28;1339;-76
2023/06/30 06:21:13;;;;;;;;;;;;;;;20.27;56.17;99266.25;5054837;28;944;-76
2023/06/30 06:23:40;;;;;;;;;;;;;;;20.37;55.92;99265.94;5069686;28;1105;-77
2023/06/30 06:26:06;;;;;;;;;;;;;;;20.29;55.89;99264.78;5055100;28;1061;-78
2023/06/30 06:28:33;;;;;;;;;;;;;;;20.20;56.05;99266.66;5069530;28;1989;-77
2023/06/30 06:30:59;;;;;;;;;;;;;;;20.31;56.05;99267.22;5069695;28;1049;-78
2023/06/30 06:33:26;;;;;;;;;;;;;;;20.31;55.95;99275.41;5053902;28;1089;-78
2023/06/30 06:35:53;;;;;;;;;;;;;;;20.11;56.31;99274.03;5054573;28;986;-76
2023/06/30 06:38:19;;;;;;;;;;;;;;;20.27;55.92;99274.44;5054260;28;1021;-78
2023/06/30 06:40:46;;;;;;;;;;;;;;;20.15;56.28;99275.84;5054373;28;1023;-78
2023/06/30 06:43:12;;;;;;;;;;;;;;;20.04;56.45;99274.47;5054321;28;1006;-78
2023/06/30 06:45:39;;;;;;;;;;;;;;;20.10;56.23;99266.97;5054280;28;1010;-76
2023/06/30 06:48:05;;;;;;;;;;;;;;;19.96;56.60;99267.84;5069263;28;1918;-76
2023/06/30 06:50:32;;;;;;;;;;;;;;;19.89;57.12;99272.97;5069416;28;1220;-78
2023/06/30 06:52:59;;;;;;;;;;;;;;;19.96;56.73;99273.31;5054648;28;925;-77
2023/06/30 06:55:25;;;;;;;;;;;;;;;19.87;57.09;99264.25;5052659;28;1318;-77
2023/06/30 06:57:52;;;;;;;;;;;;;;;19.85;57.00;99273.88;5054277;28;933;-77
2023/06/30 07:00:18;;;;;;;;;;;;;;;19.86;57.27;99267.31;5052701;28;1197;-77
2023/06/30 07:02:45;;;;;;;;;;;;;;;19.82;57.28;99275.31;5069481;28;1270;-76
2023/06/30 07:05:12;;;;;;;;;;;;;;;19.80;57.45;99263.09;5054210;28;1100;-76
2023/06/30 07:07:38;;;;;;;;;;;;;;;19.83;57.39;99276.13;5053837;28;1913;-76
2023/06/30 07:10:05;;;;;;;;;;;;;;;19.83;57.21;99270.66;5053623;28;988;-77
2023/06/30 07:12:31;;;;;;;;;;;;;;;19.80;57.02;99274.81;5054408;28;937;-76
2023/06/30 07:14:58;;;;;;;;;;;;;;;19.81;57.16;99273.69;5053706;28;1239;-79
2023/06/30 07:17:24;;;;;;;;;;;;;;;19.80;57.21;99277.56;5054041;28;1041;-75
2023/06/30 07:19:51;;;;;;;;;;;;;;;19.79;57.25;99275.94;5052085;28;1505;-78
2023/06/30 07:22:17;;;;;;;;;;;;;;;19.78;57.49;99274.31;5051060;28;1327;-77
2023/06/30 07:24:44;;;;;;;;;;;;;;;19.81;57.44;99283.81;5053659;28;1033;-77
2023/06/30 07:27:10;;;;;;;;;;;;;;;19.87;57.06;99280.66;5053599;28;1319;-76
2023/06/30 07:29:37;;;;;;;;;;;;;;;19.85;56.93;99282.06;5053277;28;1914;-76
2023/06/30 07:32:03;;;;;;;;;;;;;;;19.79;57.06;99275.94;5068619;28;1312;-77
2023/06/30 07:34:33;;;;;;;;;;;;;;;19.78;57.36;99268.06;5061771;28;1236;-77
2023/06/30 07:37:00;;;;;;;;;;;;;;;19.76;57.28;99276.56;5053080;28;940;-77
2023/06/30 07:39:26;;;;;;;;;;;;;;;19.78;57.32;99270.78;5053226;28;905;-77
2023/06/30 07:41:53;;;;;;;;;;;;;;;19.79;57.17;99269.66;5052832;28;1025;-77
2023/06/30 07:44:20;;;;;;;;;;;;;;;19.79;57.09;99267.72;5053118;28;984;-77
2023/06/30 07:46:47;;;;;;;;;;;;;;;19.79;57.02;99275.94;5068284;28;1458;-78
2023/06/30 07:49:13;;;;;;;;;;;;;;;19.82;57.08;99266.31;5052825;28;1906;-76
2023/06/30 07:51:40;;;;;;;;;;;;;;;19.81;56.89;99267.44;5053086;28;1000;-78
2023/06/30 07:54:07;;;;;;;;;;;;;;;19.80;57.25;99261.16;5052775;28;1118;-76
2023/06/30 07:56:33;;;;;;;;;;;;;;;19.80;56.96;99257.63;5052836;28;1021;-76
2023/06/30 07:59:00;;;;;;;;;;;;;;;19.83;56.91;99262.47;5052575;28;1018;-74
2023/06/30 08:01:27;;;;;;;;;;;;;;;19.81;57.12;99253.78;5052522;28;1029;-76
2023/06/30 08:03:54;;;;;;;;;;;;;;;19.80;56.93;99246.72;5052793;28;917;-77
2023/06/30 08:06:20;;;;;;;;;;;;;;;19.80;56.90;99247.50;5052302;28;1112;-77
2023/06/30 08:08:47;;;;;;;;;;;;;;;19.80;57.16;99242.06;5052577;28;1961;-78
2023/06/30 08:11:13;;;;;;;;;;;;;;;19.81;57.12;99240.91;5067744;28;1259;-77
2023/06/30 08:13:40;;;;;;;;;;;;;;;19.81;57.01;99240.13;5052891;28;927;-77
2023/06/30 08:16:07;;;;;;;;;;;;;;;19.82;56.80;99242.53;5052710;28;1100;-77
2023/06/30 08:18:33;;;;;;;;;;;;;;;19.82;57.13;99247.19;5052253;28;1017;-77
2023/06/30 08:21:00;;;;;;;;;;;;;;;19.82;57.11;99250.72;5050885;28;1638;-77
2023/06/30 08:23:26;;;;;;;;;;;;;;;19.83;57.04;99244.16;5052700;28;980;-77
2023/06/30 08:25:55;;;;;;;;;;;;;;;19.81;56.75;99237.38;5051021;28;1250;-76
2023/06/30 08:28:21;;;;;;;;;;;;;;;19.80;56.87;99238.50;5067036;28;1902;-77
2023/06/30 08:30:48;;;;;;;;;;;;;;;19.81;56.87;99234.66;5051849;28;1013;-77
2023/06/30 08:33:14;;;;;;;;;;;;;;;19.81;57.18;99240.91;5051906;28;938;-76
2023/06/30 08:35:41;;;;;;;;;;;;;;;19.83;56.84;99237.88;5068055;28;1156;-77
2023/06/30 08:38:07;;;;;;;;;;;;;;;19.84;57.01;99234.84;5052284;28;902;-77
2023/06/30 08:40:34;;;;;;;;;;;;;;;19.83;57.10;99227.75;5052335;28;990;-78
2023/06/30 08:43:00;;;;;;;;;;;;;;;19.83;56.96;99229.69;5052341;28;1024;-76
2023/06/30 08:45:27;;;;;;;;;;;;;;;19.84;56.97;99225.84;5052390;28;1021;-77
2023/06/30 08:47:54;;;;;;;;;;;;;;;19.84;57.04;99217.63;5051946;28;1085;-75
2023/06/30 08:50:21;;;;;;;;;;;;;;;19.82;57.02;99222.59;5067465;28;1986;-76
2023/06/30 08:52:47;;;;;;;;;;;;;;;19.81;56.90;99235.47;5067805;28;1223;-77
2023/06/30 08:55:14;;;;;;;;;;;;;;;19.81;56.92;99240.91;5067358;28;1180;-75
2023/06/30 08:57:41;;;;;;;;;;;;;;;19.81;56.85;99229.19;5052141;28;996;-79
2023/06/30 09:00:08;;;;;;;;;;;;;;;19.79;57.00;99224.03;5051846;28;999;-78
2023/06/30 09:02:34;;;;;;;;;;;;;;;19.80;57.26;99239.31;5067422;28;999;-78
2023/06/30 09:05:00;;;;;;;;;;;;;;;19.79;56.99;99229.50;5052381;28;1037;-77
2023/06/30 09:07:27;;;;;;;;;;;;;;;19.81;57.20;99229.19;5051598;28;982;-78
2023/06/30 09:09:54;;;;;;;;;;;;;;;19.80;57.18;99224.84;5051459;28;1981;-74
2023/06/30 09:12:20;;;;;;;;;;;;;;;19.78;57.33;99225.16;5067255;28;1033;-77
2023/06/30 09:14:47;;;;;;;;;;;;;;;19.78;57.16;99233.34;5052155;28;968;-75
2023/06/30 09:17:13;;;;;;;;;;;;;;;19.78;57.08;99230.63;5051497;28;1001;-77
2023/06/30 09:19:40;;;;;;;;;;;;;;;19.77;57.13;99229.03;5051694;28;1031;-76
2023/06/30 09:22:06;;;;;;;;;;;;;;;19.79;57.48;99226.75;5051643;28;1023;-74
2023/06/30 09:24:33;;;;;;;;;;;;;;;19.79;57.20;99225.97;5066934;28;986;-74
2023/06/30 09:26:59;;;;;;;;;;;;;;;19.80;57.52;99222.13;5053490;28;1419;-76
2023/06/30 09:29:26;;;;;;;;;;;;;;;19.78;57.30;99218.91;5067462;28;1985;-78
2023/06/30 09:31:53;;;;;;;;;;;;;;;19.79;57.12;99223.22;5069705;28;906;-78
2023/06/30 09:34:20;;;;;;;;;;;;;;;19.79;57.43;99220.50;5058492;28;1202;-76
2023/06/30 09:36:46;;;;;;;;;;;;;;;19.79;57.28;99225.97;5062113;28;1032;-74
2023/06/30 09:39:13;;;;;;;;;;;;;;;19.78;57.53;99227.09;5061135;28;1140;-76
2023/06/30 09:41:39;;;;;;;;;;;;;;;19.78;57.23;99229.81;5067360;28;965;-76
2023/06/30 09:44:06;;;;;;;;;;;;;;;19.78;57.60;99224.34;5067016;28;1090;-76
2023/06/30 09:46:33;;;;;;;;;;;;;;;19.80;57.14;99220.19;5055321;28;1278;-75
2023/06/30 09:49:01;;;;;;;;;;;;;;;19.80;57.43;99216.66;5071120;28;1963;-77
2023/06/30 09:51:28;;;;;;;;;;;;;;;19.78;57.33;99221.63;5073055;28;1073;-75
2023/06/30 09:53:55;;;;;;;;;;;;;;;19.77;57.26;99218.09;5072635;28;1005;-78
2023/06/30 09:56:21;;;;;;;;;;;;;;;19.78;57.41;99216.16;5072937;28;1267;-76
2023/06/30 09:58:48;;;;;;;;;;;;;;;19.78;57.71;99216.16;5073738;28;985;-79
2023/06/30 10:01:14;;;;;;;;;;;;;;;19.77;57.54;99217.28;5070570;28;1180;-78
2023/06/30 10:03:41;;;;;;;;;;;;;;;19.76;57.32;99212.94;5071236;28;1023;-75
2023/06/30 10:06:07;;;;;;;;;;;;;;;19.75;57.63;99206.66;5072216;28;1081;-78
2023/06/30 10:08:34;;;;;;;;;;;;;;;19.78;57.50;99207.97;5053548;28;1918;-78
2023/06/30 10:11:00;;;;;;;;;;;;;;;19.78;57.48;99211.50;5071991;28;1291;-76
2023/06/30 10:13:27;;;;;;;;;;;;;;;19.77;57.53;99214.56;5054285;28;1081;-79
2023/06/30 10:15:53;;;;;;;;;;;;;;;19.80;57.54;99224.84;5071964;28;1606;-76
2023/06/30 10:18:20;;;;;;;;;;;;;;;19.80;57.69;99213.94;5073486;28;1056;-76
2023/06/30 10:20:47;;;;;;;;;;;;;;;19.80;57.64;99206.53;5071734;28;1041;-79
2023/06/30 10:23:13;;;;;;;;;;;;;;;19.81;57.60;99204.59;5072498;28;1251;-76
2023/06/30 10:25:40;;;;;;;;;;;;;;;19.81;57.46;99212.81;5071583;28;1227;-75
2023/06/30 10:28:07;;;;;;;;;;;;;;;19.80;57.63;99213.94;5072023;28;1264;-77
2023/06/30 10:30:34;;;;;;;;;;;;;;;19.81;57.83;99212.81;5074592;28;1914;-77
2023/06/30 10:33:00;;;;;;;;;;;;;;;19.81;57.45;99210.88;5073218;28;995;-76
2023/06/30 10:35:27;;;;;;;;;;;;;;;19.83;57.64;99216.03;5074047;28;1070;-76
2023/06/30 10:37:53;;;;;;;;;;;;;;;19.82;57.62;99207.00;5072775;28;1188;-77
2023/06/30 10:40:20;;;;;;;;;;;;;;;19.81;57.97;99208.13;5074408;28;1042;-77
2023/06/30 10:42:48;;;;;;;;;;;;;;;19.83;57.74;99210.56;5073158;28;1136;-78
2023/06/30 10:45:15;;;;;;;;;;;;;;;19.80;57.89;99206.53;5055659;28;1116;-77
2023/06/30 10:47:41;;;;;;;;;;;;;;;19.86;57.43;99207.22;5050340;28;1272;-76
2023/06/30 10:50:08;;;;;;;;;;;;;;;19.83;57.73;99205.13;5068381;28;1973;-75
2023/06/30 10:52:34;;;;;;;;;;;;;;;19.83;57.85;99211.38;5073796;28;1010;-76
2023/06/30 10:55:03;;;;;;;;;;;;;;;19.84;57.96;99198.50;5055272;28;1376;-75
2023/06/30 10:57:30;;;;;;;;;;;;;;;19.86;57.56;99199.03;5073447;28;982;-76
2023/06/30 10:59:56;;;;;;;;;;;;;;;19.86;58.01;99193.56;5073765;28;996;-78
2023/06/30 11:02:23;;;;;;;;;;;;;;;19.86;57.79;99188.09;5074055;28;999;-78
2023/06/30 11:04:50;;;;;;;;;;;;;;;19.85;57.98;99191.91;5073777;28;1022;-78
2023/06/30 11:07:17;;;;;;;;;;;;;;;19.85;57.94;99194.66;5073703;28;1038;-77
2023/06/30 11:09:43;;;;;;;;;;;;;;;19.86;57.91;99188.91;5073374;28;1906;-77
2023/06/30 11:12:10;;;;;;;;;;;;;;;19.87;57.89;99185.03;5072397;28;959;-77
2023/06/30 11:14:38;;;;;;;;;;;;;;;19.88;58.27;99192.13;5073700;28;1000;-76
2023/06/30 11:17:04;;;;;;;;;;;;;;;19.89;58.34;99188.25;5072544;28;1187;-76
2023/06/30 11:19:31;;;;;;;;;;;;;;;19.98;58.11;99188.31;5072479;28;1406;-75
2023/06/30 11:21:57;;;;;;;;;;;;;;;20.01;57.97;99184.13;5073297;28;1144;-76
2023/06/30 11:24:24;;;;;;;;;;;;;;;19.98;58.25;99182.03;5072232;28;1177;-77
2023/06/30 11:26:50;;;;;;;;;;;;;;;19.91;58.55;99183.28;5050683;28;1287;-77
2023/06/30 11:29:17;;;;;;;;;;;;;;;19.89;58.20;99173.81;5053005;28;1979;-77
2023/06/30 11:31:43;;;;;;;;;;;;;;;19.90;58.12;99181.66;5053326;28;1070;-78
2023/06/30 11:34:10;;;;;;;;;;;;;;;19.90;58.29;99175.41;5053228;28;1125;-77
2023/06/30 11:36:37;;;;;;;;;;;;;;;19.90;58.30;99172.66;5053005;28;1074;-78
2023/06/30 11:39:03;;;;;;;;;;;;;;;19.90;57.98;99176.19;5052528;28;964;-77
2023/06/30 11:41:30;;;;;;;;;;;;;;;19.93;57.88;99177.50;5051724;28;1587;-79
2023/06/30 11:43:57;;;;;;;;;;;;;;;19.93;58.00;99177.50;5053033;28;1066;-75
2023/06/30 11:46:24;;;;;;;;;;;;;;;19.94;58.02;99174.47;5051624;28;1797;-77
2023/06/30 11:48:50;;;;;;;;;;;;;;;19.94;57.84;99182.66;5051467;28;2318;-76
2023/06/30 11:51:17;;;;;;;;;;;;;;;19.96;57.78;99179.59;5052600;28;1099;-77
2023/06/30 11:53:44;;;;;;;;;;;;;;;19.99;57.75;99180.91;5052786;28;1074;-78
2023/06/30 11:56:10;;;;;;;;;;;;;;;19.99;58.08;99176.25;5051348;28;1054;-78
2023/06/30 11:58:37;;;;;;;;;;;;;;;20.02;58.04;99166.59;5052374;28;1028;-77
2023/06/30 12:01:04;;;;;;;;;;;;;;;20.00;58.11;99171.56;5052566;28;991;-78
2023/06/30 12:03:30;;;;;;;;;;;;;;;20.00;58.13;99168.84;5051276;28;1144;-78
2023/06/30 12:05:57;;;;;;;;;;;;;;;20.02;58.47;99178.34;5052772;28;1052;-77
2023/06/30 12:08:24;;;;;;;;;;;;;;;20.00;58.81;99169.69;5050043;28;1113;-78
2023/06/30 12:10:51;;;;;;;;;;;;;;;20.00;58.28;99164.22;5034707;28;1977;-78
2023/06/30 12:13:18;;;;;;;;;;;;;;;20.04;58.56;99164.38;5052265;28;1047;-76
2023/06/30 12:15:44;;;;;;;;;;;;;;;20.04;58.63;99161.66;5034294;28;1034;-77
2023/06/30 12:18:12;;;;;;;;;;;;;;;20.03;58.32;99171.78;5033137;28;1178;-78
2023/06/30 12:20:39;;;;;;;;;;;;;;;20.04;58.17;99167.09;5051285;28;1462;-77
2023/06/30 12:23:05;;;;;;;;;;;;;;;20.05;58.56;99161.31;5052141;28;1074;-77
2023/06/30 12:25:33;;;;;;;;;;;;;;;20.05;58.52;99164.03;5052313;28;985;-77
2023/06/30 12:28:00;;;;;;;;;;;;;;;20.05;58.30;99155.03;5057183;28;1327;-78
2023/06/30 12:30:26;;;;;;;;;;;;;;;20.05;58.25;99153.13;5050746;28;1922;-77
2023/06/30 12:32:53;;;;;;;;;;;;;;;20.07;58.23;99153.63;5067659;28;980;-76
2023/06/30 12:35:19;;;;;;;;;;;;;;;20.06;58.43;99151.19;5051818;28;1229;-77
2023/06/30 12:37:48;;;;;;;;;;;;;;;20.07;58.11;99158.28;5033160;28;1021;-75
2023/06/30 12:40:14;;;;;;;;;;;;;;;20.07;58.34;99153.63;5050535;28;1009;-73
2023/06/30 12:42:41;;;;;;;;;;;;;;;20.08;58.03;99157.94;5026915;28;1176;-75
2023/06/30 12:45:07;;;;;;;;;;;;;;;20.09;58.10;99145.91;5050385;28;949;-77
2023/06/30 12:47:34;;;;;;;;;;;;;;;20.11;58.36;99148.31;5066753;28;1071;-74
2023/06/30 12:50:02;;;;;;;;;;;;;;;20.11;58.20;99149.13;5048833;28;1910;-74
2023/06/30 12:52:28;;;;;;;;;;;;;;;20.11;58.26;99151.03;5066610;28;1106;-75
2023/06/30 12:54:55;;;;;;;;;;;;;;;20.12;58.28;99156.22;5050075;28;972;-74
2023/06/30 12:57:22;;;;;;;;;;;;;;;20.13;58.51;99154.28;5049468;28;1050;-76